CheckWX is a tool to help pilots better visualize weather data.  It is not intended as a substitute for an official pre-flight weather briefing.

00:55:10 UTC

KHBG TAF
Hattiesburg Bobby L Chain Municipal Airport
Hattiesburg, Mississippi, USA
KHBG 020521Z 0206/0306 13003KT P6SM SCT120 FM021900 14006KT P6SM VCTS BKN050CB FM030000 14003KT P6SM BKN100

Jun-2@
06:00 UTC

Jun-2 @ 06:00 UTC

Jun-2@
19:00 UTC

Jun-2 @ 19:00 UTC

TAF KHBG 020521Z 0206/0306 13003KT P6SM SCT120

Expired

Wind
  • 130° at 3 KTS
Cloud Levels
  • Scattered at 12,000' AGL

Jun-2@
19:00 UTC

Jun-2 @ 19:00 UTC

Jun-3@
00:00 UTC

Jun-3 @ 00:00 UTC

FM021900 14006KT P6SM VCTS BKN050CB

Expired

Wind
  • 140° at 6 KTS
Conditions
Area Thunderstorm
Cloud Levels
  • Broken at 5,000' AGL

Jun-3@
00:00 UTC

Jun-3 @ 00:00 UTC

Jun-3@
06:00 UTC

Jun-3 @ 06:00 UTC

FM030000 14003KT P6SM BKN100

From

From Standard forecast or significant change

Wind
  • 140° at 3 KTS
Cloud Levels
  • Broken at 10,000' AGL